createdAt,value
2023-02-20T00:01:33.520Z,4.25
2023-02-20T00:04:00.322Z,4.32
2023-02-20T00:06:27.015Z,3.97
2023-02-20T00:08:53.706Z,4.40
2023-02-20T00:11:20.598Z,4.75
2023-02-20T00:13:47.743Z,6.15
2023-02-20T00:16:14.697Z,4.93
2023-02-20T00:18:41.432Z,4.72
2023-02-20T00:21:08.325Z,4.55
2023-02-20T00:23:35.111Z,4.65
2023-02-20T00:26:02.072Z,4.18
2023-02-20T00:28:29.808Z,4.60
2023-02-20T00:30:56.832Z,4.55
2023-02-20T00:33:23.692Z,4.78
2023-02-20T00:35:50.323Z,4.72
2023-02-20T00:38:16.992Z,4.63
2023-02-20T00:40:43.779Z,5.55
2023-02-20T00:43:10.358Z,4.40
2023-02-20T00:45:36.923Z,4.88
2023-02-20T00:48:03.822Z,4.55
2023-02-20T00:50:30.537Z,4.30
2023-02-20T00:52:57.185Z,4.70
2023-02-20T00:55:23.843Z,4.07
2023-02-20T00:57:50.445Z,4.85
2023-02-20T01:00:20.321Z,4.35
2023-02-20T01:02:47.121Z,4.57
2023-02-20T01:05:13.835Z,4.60
2023-02-20T01:07:40.502Z,4.32
2023-02-20T01:10:07.799Z,4.13
2023-02-20T01:12:34.404Z,4.78
2023-02-20T01:15:01.044Z,4.30
2023-02-20T01:17:27.698Z,4.00
2023-02-20T01:19:55.770Z,4.40
2023-02-20T01:22:22.734Z,4.53
2023-02-20T01:24:49.425Z,4.03
2023-02-20T01:27:16.396Z,4.50
2023-02-20T01:29:43.075Z,4.53
2023-02-20T01:32:11.792Z,4.38
2023-02-20T01:34:38.743Z,4.20
2023-02-20T01:37:05.373Z,4.10
2023-02-20T01:39:32.101Z,5.18
2023-02-20T01:42:01.327Z,4.72
2023-02-20T01:44:30.153Z,5.07
2023-02-20T01:46:57.938Z,4.80
2023-02-20T01:49:53.728Z,4.88
2023-02-20T01:52:27.941Z,4.97
2023-02-20T01:55:11.766Z,5.28
2023-02-20T01:57:40.325Z,5.13
2023-02-20T02:00:12.263Z,4.95
2023-02-20T02:02:40.831Z,5.38
2023-02-20T02:05:08.552Z,4.75
2023-02-20T02:07:35.224Z,5.57
2023-02-20T02:10:04.250Z,5.30
2023-02-20T02:12:30.841Z,5.20
2023-02-20T02:14:57.520Z,5.05
2023-02-20T02:21:16.534Z,5.00
2023-02-20T02:24:23.052Z,5.78
2023-02-20T02:27:15.515Z,5.13
2023-02-20T02:30:13.537Z,5.90
2023-02-20T02:33:02.848Z,5.85
2023-02-20T02:41:41.616Z,5.03
2023-02-20T02:44:19.481Z,5.28
2023-02-20T02:47:05.605Z,5.38
2023-02-20T02:50:12.179Z,6.18
2023-02-20T02:52:40.976Z,5.93
2023-02-20T02:55:08.408Z,6.05
2023-02-20T02:57:35.059Z,5.28
2023-02-20T03:00:05.743Z,5.25
2023-02-20T03:02:35.050Z,6.05
2023-02-20T03:05:02.584Z,5.78
2023-02-20T03:07:29.207Z,5.88
2023-02-20T03:10:00.235Z,6.43
2023-02-20T03:12:26.897Z,6.25
2023-02-20T03:15:19.133Z,5.60
2023-02-20T03:17:53.360Z,5.45
2023-02-20T03:20:20.964Z,5.70
2023-02-20T03:23:03.194Z,5.60
2023-02-20T03:25:39.864Z,5.70
2023-02-20T03:28:11.295Z,6.80
2023-02-20T03:31:00.078Z,5.85
2023-02-20T03:34:10.670Z,6.00
2023-02-20T03:36:59.785Z,6.30
2023-02-20T03:39:50.217Z,5.35
2023-02-20T03:42:37.142Z,6.50
2023-02-20T03:45:04.864Z,6.10
2023-02-20T03:47:31.727Z,6.30
2023-02-20T03:49:58.329Z,6.90
2023-02-20T03:52:24.993Z,6.40
2023-02-20T03:54:51.641Z,6.80
2023-02-20T03:57:20.907Z,6.20
2023-02-20T03:59:50.810Z,7.30
2023-02-20T04:02:22.072Z,6.85
2023-02-20T04:04:50.284Z,7.57
2023-02-20T04:07:21.213Z,7.80
2023-02-20T04:09:47.893Z,7.88
2023-02-20T04:12:18.665Z,7.60
2023-02-20T04:14:45.264Z,9.25
2023-02-20T04:17:13.714Z,8.48
2023-02-20T04:19:40.511Z,9.35
2023-02-20T04:22:08.681Z,8.32
2023-02-20T04:24:40.413Z,8.93
2023-02-20T04:27:07.172Z,9.47
2023-02-20T04:29:33.812Z,9.02
2023-02-20T04:32:00.721Z,9.13
2023-02-20T04:34:27.408Z,9.73
2023-02-20T04:37:04.857Z,10.25
2023-02-20T04:39:31.418Z,9.40
2023-02-20T04:41:58.037Z,9.90
2023-02-20T04:44:31.692Z,9.85
2023-02-20T04:46:58.730Z,9.40
2023-02-20T04:49:25.467Z,10.00
2023-02-20T04:51:52.192Z,9.75
2023-02-20T04:54:18.901Z,9.10
2023-02-20T04:56:45.561Z,9.52
2023-02-20T04:59:12.314Z,10.60
2023-02-20T05:01:39.306Z,9.73
2023-02-20T05:04:05.993Z,9.20
2023-02-20T05:06:32.677Z,11.23
2023-02-20T05:08:59.333Z,10.50
2023-02-20T05:11:25.976Z,11.02
2023-02-20T05:13:52.561Z,11.85
2023-02-20T05:16:19.219Z,10.15
2023-02-20T05:18:45.908Z,12.38
2023-02-20T05:21:34.337Z,6.90
2023-02-20T05:24:00.907Z,4.15
2023-02-20T05:26:27.749Z,2.75
2023-02-20T05:28:54.353Z,2.75
2023-02-20T05:31:21.055Z,3.30
2023-02-20T05:33:47.770Z,3.22
2023-02-20T05:36:14.757Z,2.90
2023-02-20T05:38:47.609Z,3.15
2023-02-20T05:41:15.880Z,3.50
2023-02-20T05:43:42.557Z,14.73
2023-02-20T05:46:09.105Z,12.23
2023-02-20T05:48:35.694Z,14.80
2023-02-20T05:51:02.338Z,16.00
2023-02-20T05:53:29.737Z,10.68
2023-02-20T05:55:56.324Z,3.40
2023-02-20T05:58:23.202Z,3.50
2023-02-20T06:00:49.990Z,3.03
2023-02-20T06:03:16.735Z,4.32
2023-02-20T06:05:43.610Z,3.67
2023-02-20T06:08:10.403Z,3.38
2023-02-20T06:10:37.042Z,3.60
2023-02-20T06:13:03.626Z,3.10
2023-02-20T06:15:30.238Z,4.32
2023-02-20T06:17:56.925Z,3.95
2023-02-20T06:20:23.489Z,4.10
2023-02-20T06:22:50.287Z,2.60
2023-02-20T06:25:17.045Z,3.20
2023-02-20T06:27:43.699Z,2.95
2023-02-20T06:30:11.102Z,3.25
2023-02-20T06:32:37.722Z,3.60
2023-02-20T06:35:04.896Z,3.58
2023-02-20T06:37:31.511Z,3.38
2023-02-20T06:39:58.411Z,5.30
2023-02-20T06:42:25.039Z,7.18
2023-02-20T06:44:51.750Z,5.05
2023-02-20T06:47:18.446Z,3.90
2023-02-20T06:49:45.210Z,3.47
2023-02-20T06:52:11.952Z,3.78
2023-02-20T06:54:38.674Z,3.58
2023-02-20T06:57:05.328Z,4.13
2023-02-20T06:59:31.965Z,4.20
2023-02-20T07:01:58.586Z,4.70
2023-02-20T07:04:27.972Z,3.60
2023-02-20T07:06:55.366Z,3.75
2023-02-20T07:09:21.961Z,3.47
2023-02-20T07:11:50.827Z,3.60
2023-02-20T07:14:17.829Z,3.85
2023-02-20T07:16:44.414Z,4.57
2023-02-20T07:19:11.062Z,3.90
2023-02-20T07:21:37.720Z,4.13
2023-02-20T07:24:04.967Z,2.88
2023-02-20T07:26:31.847Z,2.92
2023-02-20T07:28:58.553Z,3.85
2023-02-20T07:31:25.317Z,3.58
2023-02-20T07:33:52.025Z,4.28
2023-02-20T07:36:18.769Z,3.33
2023-02-20T07:38:55.231Z,4.03
2023-02-20T07:41:22.289Z,2.90
2023-02-20T07:43:48.841Z,3.47
2023-02-20T07:46:17.222Z,3.85
2023-02-20T07:48:44.956Z,4.28
2023-02-20T07:51:11.681Z,3.30
2023-02-20T07:53:38.282Z,3.25
2023-02-20T07:56:05.660Z,3.50
2023-02-20T07:58:32.340Z,2.97
2023-02-20T08:00:59.059Z,3.35
2023-02-20T08:03:25.669Z,2.60
2023-02-20T08:05:52.398Z,3.50
2023-02-20T08:08:19.053Z,3.97
2023-02-20T08:10:45.661Z,3.90
2023-02-20T08:13:12.261Z,3.30
2023-02-20T08:15:38.906Z,3.50
2023-02-20T08:18:12.554Z,2.75
2023-02-20T08:20:42.497Z,2.58
2023-02-20T08:23:18.888Z,2.80
2023-02-20T08:25:45.527Z,3.97
2023-02-20T08:28:12.295Z,3.10
2023-02-20T08:30:38.931Z,2.38
2023-02-20T08:33:06.555Z,3.17
2023-02-20T08:35:34.650Z,2.97
2023-02-20T08:38:03.743Z,3.63
2023-02-20T08:40:30.386Z,4.28
2023-02-20T08:42:57.049Z,4.15
2023-02-20T08:45:24.229Z,4.03
2023-02-20T08:47:51.015Z,3.65
2023-02-20T08:50:18.518Z,3.80
2023-02-20T08:52:45.387Z,4.15
2023-02-20T08:55:12.597Z,4.05
2023-02-20T08:57:39.305Z,4.55
2023-02-20T09:00:06.540Z,4.20
2023-02-20T09:02:33.207Z,4.72
2023-02-20T09:05:00.031Z,4.18
2023-02-20T09:07:26.662Z,3.47
2023-02-20T09:09:53.442Z,3.70
2023-02-20T09:12:20.275Z,4.40
2023-02-20T09:14:47.060Z,4.00
2023-02-20T09:17:13.760Z,5.00
2023-02-20T09:19:40.457Z,5.63
2023-02-20T09:22:07.057Z,4.45
2023-02-20T09:24:34.434Z,2.83
2023-02-20T09:27:02.597Z,3.72
2023-02-20T09:29:29.288Z,3.60
2023-02-20T09:31:56.051Z,4.13
2023-02-20T09:34:22.811Z,3.95
2023-02-20T09:36:49.461Z,3.20
2023-02-20T09:39:17.765Z,3.58
2023-02-20T09:42:10.797Z,3.63
2023-02-20T09:45:00.085Z,3.13
2023-02-20T09:48:06.785Z,3.97
2023-02-20T09:53:27.847Z,2.80
2023-02-20T09:55:55.661Z,2.83
2023-02-20T09:58:41.516Z,2.95
2023-02-20T10:01:08.344Z,3.25
2023-02-20T10:03:40.273Z,2.88
2023-02-20T10:06:25.292Z,3.30
2023-02-20T10:08:52.012Z,3.53
2023-02-20T10:14:45.976Z,5.05
2023-02-20T10:17:20.353Z,2.78
2023-02-20T10:19:56.389Z,2.72
2023-02-20T10:22:30.931Z,2.88
2023-02-20T10:25:23.222Z,3.05
2023-02-20T10:28:10.944Z,3.40
2023-02-20T10:30:44.786Z,2.83
2023-02-20T10:33:31.240Z,4.30
2023-02-20T10:36:05.065Z,3.85
2023-02-20T10:38:36.415Z,2.92
2023-02-20T10:41:07.642Z,2.55
2023-02-20T10:43:40.385Z,2.70
2023-02-20T10:48:39.286Z,3.03
2023-02-20T10:51:11.145Z,2.58
2023-02-20T10:53:57.336Z,2.75
2023-02-20T10:56:35.187Z,2.35
2023-02-20T10:59:13.219Z,2.80
2023-02-20T11:01:39.996Z,2.50
2023-02-20T11:04:11.127Z,2.63
2023-02-20T11:06:41.632Z,2.63
2023-02-20T11:09:10.446Z,2.50
2023-02-20T11:11:44.846Z,2.63
2023-02-20T11:14:14.899Z,3.97
2023-02-20T11:17:00.099Z,2.90
2023-02-20T11:19:31.811Z,2.67
2023-02-20T11:21:58.489Z,2.72
2023-02-20T11:24:41.133Z,3.80
2023-02-20T11:27:10.393Z,2.15
2023-02-20T11:29:42.387Z,3.72
2023-02-20T11:32:35.265Z,2.03
2023-02-20T11:38:27.525Z,2.40
2023-02-20T11:41:02.918Z,3.08
2023-02-20T11:43:47.278Z,2.55
2023-02-20T11:46:22.087Z,2.03
2023-02-20T11:49:10.001Z,2.33
2023-02-20T11:51:38.642Z,2.58
2023-02-20T11:54:08.335Z,2.58
2023-02-20T11:56:35.105Z,2.47
2023-02-20T11:59:37.913Z,2.33
2023-02-20T12:02:27.284Z,2.55
2023-02-20T12:05:07.190Z,2.40
2023-02-20T12:07:42.324Z,2.40
2023-02-20T12:10:21.363Z,1.90
2023-02-20T12:12:47.936Z,1.73
2023-02-20T12:15:15.568Z,1.95
2023-02-20T12:17:57.708Z,2.20
2023-02-20T12:20:25.979Z,3.58
2023-02-20T12:23:11.051Z,2.03
2023-02-20T12:26:00.801Z,1.90
2023-02-20T12:28:36.318Z,2.30
2023-02-20T12:31:42.946Z,2.13
2023-02-20T12:34:32.506Z,2.28
2023-02-20T12:37:39.012Z,2.85
2023-02-20T12:40:29.145Z,2.97
2023-02-20T12:43:21.527Z,2.28
2023-02-20T12:51:28.503Z,2.45
2023-02-20T12:54:06.240Z,3.15
2023-02-20T12:59:57.489Z,2.97
2023-02-20T13:02:47.520Z,2.05
2023-02-20T13:05:16.902Z,2.30
2023-02-20T13:07:47.356Z,1.95
2023-02-20T13:10:25.256Z,2.58
2023-02-20T13:12:52.506Z,2.78
2023-02-20T13:15:48.431Z,1.85
2023-02-20T13:18:40.784Z,2.08
2023-02-20T13:21:12.668Z,3.05
2023-02-20T13:23:41.814Z,2.75
2023-02-20T13:29:17.320Z,2.05
2023-02-20T13:31:49.569Z,2.45
2023-02-20T13:34:21.409Z,1.92
2023-02-20T13:36:48.976Z,1.67
2023-02-20T13:39:36.256Z,1.65
2023-02-20T13:42:05.807Z,1.83
2023-02-20T13:44:40.089Z,2.13
2023-02-20T13:50:29.508Z,1.80
2023-02-20T13:52:57.854Z,2.20
2023-02-20T13:55:25.895Z,2.35
2023-02-20T13:57:55.370Z,1.75
2023-02-20T14:03:01.609Z,1.80
2023-02-20T14:05:30.611Z,2.53
2023-02-20T14:07:58.199Z,1.30
2023-02-20T14:10:31.977Z,1.90
2023-02-20T14:13:19.773Z,2.13
2023-02-20T14:15:50.579Z,1.80
2023-02-20T14:18:19.613Z,1.88
2023-02-20T14:20:46.311Z,2.22
2023-02-20T14:26:01.301Z,1.65
2023-02-20T14:28:29.845Z,1.85
2023-02-20T14:31:36.416Z,2.08
2023-02-20T14:34:23.979Z,2.22
2023-02-20T14:40:14.164Z,1.80
2023-02-20T14:42:44.076Z,1.92
2023-02-20T14:45:26.152Z,1.90
2023-02-20T14:47:57.315Z,2.00
2023-02-20T14:50:30.112Z,1.80
2023-02-20T14:55:43.345Z,1.95
2023-02-20T14:58:19.079Z,2.00
2023-02-20T15:00:45.804Z,1.60
2023-02-20T15:03:30.891Z,1.70
2023-02-20T15:06:01.914Z,1.77
2023-02-20T15:08:32.379Z,1.70
2023-02-20T15:10:59.064Z,2.00
2023-02-20T15:13:29.685Z,1.75
2023-02-20T15:16:15.764Z,2.08
2023-02-20T15:18:44.126Z,1.75
2023-02-20T15:21:11.760Z,1.50
2023-02-20T15:23:40.940Z,1.77
2023-02-20T15:26:32.448Z,1.75
2023-02-20T15:29:22.873Z,1.50
2023-02-20T15:31:58.716Z,1.15
2023-02-20T15:34:27.494Z,1.70
2023-02-20T15:36:54.143Z,2.42
2023-02-20T15:39:20.871Z,2.00
2023-02-20T15:41:47.808Z,2.05
2023-02-20T15:44:14.955Z,2.33
2023-02-20T15:46:41.634Z,2.00
2023-02-20T15:49:15.786Z,2.72
2023-02-20T15:51:42.609Z,2.38
2023-02-20T15:54:14.117Z,2.15
2023-02-20T15:56:40.758Z,1.40
2023-02-20T15:59:08.996Z,1.70
2023-02-20T16:01:35.609Z,1.95
2023-02-20T16:04:02.230Z,2.17
2023-02-20T16:06:29.176Z,1.95
2023-02-20T16:08:55.780Z,2.22
2023-02-20T16:11:25.385Z,2.05
2023-02-20T16:13:55.692Z,1.90
2023-02-20T16:16:39.035Z,1.88
2023-02-20T16:19:18.346Z,2.25
2023-02-20T16:21:58.230Z,2.00
2023-02-20T16:24:25.773Z,2.45
2023-02-20T16:26:52.476Z,4.28
2023-02-20T16:29:22.011Z,1.95
2023-02-20T16:34:38.223Z,1.65
2023-02-20T16:37:05.945Z,2.22
2023-02-20T16:39:32.658Z,2.28
2023-02-20T16:41:59.392Z,2.38
2023-02-20T16:44:42.368Z,2.13
2023-02-20T16:49:38.747Z,1.83
2023-02-20T16:52:17.797Z,1.92
2023-02-20T16:54:45.593Z,1.95
2023-02-20T16:57:12.290Z,1.80
2023-02-20T16:59:38.910Z,2.47
2023-02-20T17:02:05.816Z,1.88
2023-02-20T17:04:32.698Z,2.53
2023-02-20T17:06:59.444Z,1.85
2023-02-20T17:09:33.709Z,2.20
2023-02-20T17:12:07.646Z,1.98
2023-02-20T17:14:34.236Z,2.22
2023-02-20T17:17:00.880Z,2.45
2023-02-20T17:19:27.659Z,2.10
2023-02-20T17:21:54.404Z,2.45
2023-02-20T17:24:21.020Z,2.15
2023-02-20T17:26:47.648Z,2.20
2023-02-20T17:29:14.340Z,2.20
2023-02-20T17:31:41.645Z,2.30
2023-02-20T17:34:08.315Z,1.88
2023-02-20T17:36:34.978Z,2.33
2023-02-20T17:39:01.657Z,2.30
2023-02-20T17:41:28.264Z,2.10
2023-02-20T17:43:54.961Z,3.05
2023-02-20T17:46:21.936Z,2.45
2023-02-20T17:48:48.574Z,1.90
2023-02-20T17:51:19.350Z,2.42
2023-02-20T17:53:46.135Z,2.17
2023-02-20T17:56:14.561Z,2.20
2023-02-20T17:58:41.656Z,2.80
2023-02-20T18:01:08.555Z,3.97
2023-02-20T18:03:35.217Z,2.70
2023-02-20T18:06:01.998Z,2.38
2023-02-20T18:08:28.777Z,2.05
2023-02-20T18:10:55.397Z,4.20
2023-02-20T18:13:22.059Z,3.92
2023-02-20T18:15:48.653Z,2.60
2023-02-20T18:18:15.546Z,4.03
2023-02-20T18:20:42.172Z,3.05
2023-02-20T18:23:09.608Z,2.17
2023-02-20T18:25:41.105Z,2.35
2023-02-20T18:28:08.502Z,1.92
2023-02-20T18:30:35.165Z,2.30
2023-02-20T18:33:01.882Z,2.10
2023-02-20T18:35:28.645Z,2.15
2023-02-20T18:37:55.305Z,2.45
2023-02-20T18:40:23.547Z,2.60
2023-02-20T18:42:50.933Z,2.80
2023-02-20T18:45:18.504Z,2.55
2023-02-20T18:47:49.406Z,2.33
2023-02-20T18:50:16.281Z,2.95
2023-02-20T18:52:46.036Z,2.97
2023-02-20T18:55:17.456Z,2.30
2023-02-20T18:57:45.897Z,2.80
2023-02-20T19:00:16.706Z,3.08
2023-02-20T19:02:43.467Z,2.70
2023-02-20T19:05:10.099Z,2.47
2023-02-20T19:07:36.759Z,3.22
2023-02-20T19:10:04.049Z,3.45
2023-02-20T19:12:30.599Z,3.85
2023-02-20T19:14:57.278Z,2.50
2023-02-20T19:17:23.944Z,2.50
2023-02-20T19:19:50.571Z,2.53
2023-02-20T19:22:17.221Z,2.42
2023-02-20T19:24:43.888Z,3.00
2023-02-20T19:27:11.731Z,3.20
2023-02-20T19:29:40.647Z,2.58
2023-02-20T19:32:09.017Z,2.67
2023-02-20T19:34:35.664Z,2.78
2023-02-20T19:37:03.281Z,3.35
2023-02-20T19:39:29.999Z,3.10
2023-02-20T19:41:57.005Z,2.97
2023-02-20T19:44:24.056Z,3.20
2023-02-20T19:46:52.194Z,3.03
2023-02-20T19:49:19.245Z,2.50
2023-02-20T19:51:47.328Z,3.65
2023-02-20T19:54:15.067Z,3.10
2023-02-20T19:56:47.158Z,3.13
2023-02-20T19:59:13.800Z,3.33
2023-02-20T20:01:40.393Z,2.60
2023-02-20T20:04:06.964Z,2.80
2023-02-20T20:06:33.534Z,2.70
2023-02-20T20:09:12.606Z,3.22
2023-02-20T20:11:41.684Z,2.80
2023-02-20T20:14:08.300Z,2.70
2023-02-20T20:16:37.706Z,2.38
2023-02-20T20:19:05.246Z,2.65
2023-02-20T20:21:32.023Z,2.55
2023-02-20T20:23:58.766Z,2.78
2023-02-20T20:26:27.555Z,2.80
2023-02-20T20:28:54.141Z,2.30
2023-02-20T20:31:21.663Z,2.50
2023-02-20T20:33:48.386Z,1.85
2023-02-20T20:36:15.386Z,1.52
2023-02-20T20:38:42.321Z,1.75
2023-02-20T20:41:09.574Z,2.67
2023-02-20T20:43:36.410Z,1.83
2023-02-20T20:46:03.929Z,2.20
2023-02-20T20:48:30.695Z,2.60
2023-02-20T20:50:57.477Z,2.20
2023-02-20T20:53:24.059Z,1.55
2023-02-20T20:55:50.724Z,1.50
2023-02-20T20:58:17.395Z,2.78
2023-02-20T21:00:44.044Z,1.73
2023-02-20T21:03:11.090Z,2.10
2023-02-20T21:05:37.798Z,2.00
2023-02-20T21:08:05.898Z,2.20
2023-02-20T21:10:32.512Z,1.58
2023-02-20T21:12:59.153Z,2.00
2023-02-20T21:15:26.039Z,2.00
2023-02-20T21:17:52.977Z,2.08
2023-02-20T21:20:21.950Z,1.88
2023-02-20T21:22:50.867Z,2.05
2023-02-20T21:25:18.839Z,2.20
2023-02-20T21:27:45.555Z,1.85
2023-02-20T21:30:12.505Z,2.25
2023-02-20T21:32:39.203Z,2.47
2023-02-20T21:35:06.155Z,2.03
2023-02-20T21:37:32.809Z,2.03
2023-02-20T21:39:59.437Z,1.80
2023-02-20T21:42:45.961Z,2.65
2023-02-20T21:45:12.596Z,2.45
2023-02-20T21:47:39.148Z,2.15
2023-02-20T21:50:06.554Z,2.50
2023-02-20T21:52:36.692Z,2.53
2023-02-20T21:55:06.743Z,2.13
2023-02-20T21:57:33.362Z,1.90
2023-02-20T22:08:10.443Z,2.35
2023-02-20T22:10:57.006Z,2.72
2023-02-20T22:13:43.596Z,3.38
2023-02-20T22:16:30.206Z,1.98
2023-02-20T22:19:16.729Z,3.78
2023-02-20T22:22:03.288Z,2.33
2023-02-20T22:24:49.815Z,1.88
2023-02-20T22:27:36.334Z,2.33
2023-02-20T22:30:23.047Z,2.17
2023-02-20T22:33:12.800Z,2.30
2023-02-20T22:35:59.352Z,2.42
2023-02-20T22:38:45.911Z,1.92
2023-02-20T22:41:38.757Z,3.63
2023-02-20T22:44:25.396Z,2.72
2023-02-20T22:47:11.925Z,2.10
2023-02-20T22:49:58.453Z,3.45
2023-02-20T22:52:44.980Z,2.05
2023-02-20T22:55:32.216Z,2.17
2023-02-20T22:58:18.768Z,2.67
2023-02-20T23:01:05.350Z,2.50
2023-02-20T23:03:51.909Z,2.20
2023-02-20T23:06:39.558Z,2.00
2023-02-20T23:09:26.583Z,2.10
2023-02-20T23:12:13.270Z,2.20
2023-02-20T23:14:59.931Z,1.90
2023-02-20T23:17:46.612Z,1.65
2023-02-20T23:20:35.172Z,1.98
2023-02-20T23:23:21.814Z,2.28
2023-02-20T23:26:08.364Z,1.65
2023-02-20T23:28:55.013Z,2.30
2023-02-20T23:31:58.573Z,2.05
2023-02-20T23:34:45.587Z,2.28
2023-02-20T23:37:32.194Z,2.75
2023-02-20T23:40:24.055Z,2.35
2023-02-20T23:43:17.310Z,2.00
2023-02-20T23:46:03.908Z,2.00
2023-02-20T23:48:50.456Z,1.70
2023-02-20T23:51:37.260Z,2.05
2023-02-20T23:54:24.083Z,2.47
2023-02-20T23:57:10.657Z,2.85
2023-02-20T23:59:57.152Z,1.75
